createdAt,value
2022-12-31T00:01:33.926Z,4.18
2022-12-31T00:04:00.790Z,4.38
2022-12-31T00:06:33.430Z,4.72
2022-12-31T00:09:02.512Z,4.53
2022-12-31T00:11:30.563Z,4.30
2022-12-31T00:13:58.089Z,4.35
2022-12-31T00:16:27.912Z,4.43
2022-12-31T00:18:59.423Z,3.92
2022-12-31T00:21:28.505Z,4.13
2022-12-31T00:23:55.700Z,3.92
2022-12-31T00:26:29.218Z,4.50
2022-12-31T00:28:57.830Z,4.20
2022-12-31T00:31:31.440Z,4.10
2022-12-31T00:33:59.228Z,4.72
2022-12-31T00:36:29.660Z,4.18
2022-12-31T00:38:58.575Z,4.90
2022-12-31T00:41:26.288Z,4.70
2022-12-31T00:43:53.640Z,5.50
2022-12-31T00:46:21.486Z,4.90
2022-12-31T00:48:49.349Z,6.50
2022-12-31T00:51:18.656Z,5.68
2022-12-31T00:53:46.216Z,5.72
2022-12-31T00:56:18.647Z,6.13
2022-12-31T00:58:45.927Z,7.18
2022-12-31T01:01:15.012Z,6.70
2022-12-31T01:03:42.316Z,7.10
2022-12-31T01:06:09.912Z,7.85
2022-12-31T01:08:36.999Z,7.10
2022-12-31T01:11:19.430Z,7.32
2022-12-31T01:13:49.620Z,8.23
2022-12-31T01:16:23.668Z,7.85
2022-12-31T01:18:50.973Z,7.05
2022-12-31T01:21:18.630Z,8.02
2022-12-31T01:23:45.791Z,6.75
2022-12-31T01:26:14.386Z,7.40
2022-12-31T01:28:41.647Z,6.95
2022-12-31T01:31:11.925Z,7.05
2022-12-31T01:33:39.528Z,7.10
2022-12-31T01:36:09.857Z,6.55
2022-12-31T01:38:36.814Z,5.85
2022-12-31T01:41:04.577Z,5.57
2022-12-31T01:43:43.030Z,6.35
2022-12-31T01:46:12.514Z,6.82
2022-12-31T01:48:39.556Z,5.20
2022-12-31T01:51:09.575Z,5.10
2022-12-31T01:53:40.733Z,5.18
2022-12-31T01:56:07.940Z,4.93
2022-12-31T01:58:42.222Z,4.25
2022-12-31T02:01:12.973Z,4.53
2022-12-31T02:03:40.544Z,3.90
2022-12-31T02:06:33.055Z,4.13
2022-12-31T02:09:00.701Z,4.10
2022-12-31T02:11:36.392Z,3.58
2022-12-31T02:14:11.532Z,2.90
2022-12-31T02:17:13.123Z,3.20
2022-12-31T02:20:13.593Z,3.08
2022-12-31T02:23:01.992Z,2.95
2022-12-31T02:25:43.845Z,3.35
2022-12-31T02:28:45.983Z,3.05
2022-12-31T02:31:17.676Z,2.85
2022-12-31T02:33:52.413Z,2.58
2022-12-31T02:36:28.683Z,2.97
2022-12-31T02:38:56.668Z,2.50
2022-12-31T02:41:42.193Z,1.90
2022-12-31T02:44:25.322Z,1.67
2022-12-31T02:47:01.197Z,1.30
2022-12-31T02:49:51.728Z,1.27
2022-12-31T02:52:41.206Z,1.40
2022-12-31T02:55:10.916Z,1.55
2022-12-31T02:57:57.800Z,1.73
2022-12-31T03:00:43.192Z,1.48
2022-12-31T03:03:11.459Z,1.98
2022-12-31T03:05:42.365Z,1.50
2022-12-31T03:08:09.589Z,1.15
2022-12-31T03:10:36.832Z,1.58
2022-12-31T03:13:03.813Z,1.38
2022-12-31T03:15:33.375Z,1.77
2022-12-31T03:18:14.931Z,1.45
2022-12-31T03:21:00.193Z,1.70
2022-12-31T03:23:31.088Z,1.50
2022-12-31T03:25:59.283Z,1.40
2022-12-31T03:28:28.567Z,1.80
2022-12-31T03:31:01.623Z,1.60
2022-12-31T03:33:40.160Z,1.70
2022-12-31T03:36:10.035Z,2.65
2022-12-31T03:38:37.119Z,1.90
2022-12-31T03:43:48.244Z,2.80
2022-12-31T03:46:15.093Z,2.20
2022-12-31T03:48:41.949Z,2.47
2022-12-31T03:51:08.865Z,1.90
2022-12-31T03:53:35.728Z,3.00
2022-12-31T03:56:02.763Z,2.60
2022-12-31T03:58:29.627Z,2.63
2022-12-31T04:00:56.583Z,2.53
2022-12-31T04:03:23.649Z,2.47
2022-12-31T04:05:55.437Z,3.05
2022-12-31T04:08:22.359Z,2.47
2022-12-31T04:10:49.176Z,3.47
2022-12-31T04:13:16.043Z,3.25
2022-12-31T04:15:42.869Z,2.80
2022-12-31T04:18:09.732Z,2.95
2022-12-31T04:20:36.763Z,3.58
2022-12-31T04:23:03.894Z,3.17
2022-12-31T04:25:30.775Z,3.10
2022-12-31T04:27:57.611Z,3.10
2022-12-31T04:30:24.414Z,2.78
2022-12-31T04:32:51.300Z,2.60
2022-12-31T04:35:18.168Z,2.40
2022-12-31T04:37:44.969Z,3.20
2022-12-31T04:40:12.232Z,2.50
2022-12-31T04:42:39.039Z,2.13
2022-12-31T04:45:06.386Z,2.33
2022-12-31T04:47:33.420Z,1.90
2022-12-31T04:50:00.278Z,2.20
2022-12-31T04:52:27.081Z,1.90
2022-12-31T04:54:53.891Z,1.80
2022-12-31T04:57:20.748Z,1.83
2022-12-31T04:59:47.714Z,1.58
2022-12-31T05:02:14.872Z,1.40
2022-12-31T05:04:41.894Z,2.22
2022-12-31T05:07:08.684Z,1.67
2022-12-31T05:09:35.508Z,1.45
2022-12-31T05:12:02.384Z,1.20
2022-12-31T05:14:29.227Z,1.05
2022-12-31T05:16:56.067Z,1.40
2022-12-31T05:19:22.870Z,1.52
2022-12-31T05:22:09.792Z,1.88
2022-12-31T05:24:36.683Z,1.80
2022-12-31T05:27:03.897Z,2.40
2022-12-31T05:29:30.760Z,2.10
2022-12-31T05:31:57.564Z,2.30
2022-12-31T05:34:24.346Z,2.80
2022-12-31T05:36:51.441Z,2.95
2022-12-31T05:39:18.250Z,3.22
2022-12-31T05:41:45.057Z,4.38
2022-12-31T05:44:11.931Z,4.60
2022-12-31T05:46:38.781Z,4.88
2022-12-31T05:49:05.653Z,4.78
2022-12-31T05:51:32.656Z,5.70
2022-12-31T05:53:59.484Z,5.60
2022-12-31T05:56:26.320Z,6.40
2022-12-31T05:58:53.167Z,5.43
2022-12-31T06:01:20.156Z,5.80
2022-12-31T06:03:47.393Z,6.20
2022-12-31T06:06:14.310Z,5.60
2022-12-31T06:08:41.297Z,5.15
2022-12-31T06:11:08.365Z,5.03
2022-12-31T06:13:35.246Z,4.95
2022-12-31T06:16:07.282Z,5.47
2022-12-31T06:18:34.173Z,4.78
2022-12-31T06:21:01.359Z,4.03
2022-12-31T06:23:28.200Z,3.92
2022-12-31T06:25:55.101Z,3.45
2022-12-31T06:28:22.230Z,3.45
2022-12-31T06:30:49.072Z,3.65
2022-12-31T06:33:15.930Z,3.17
2022-12-31T06:35:42.780Z,3.85
2022-12-31T06:38:09.620Z,4.28
2022-12-31T06:40:37.961Z,4.15
2022-12-31T06:43:05.713Z,4.47
2022-12-31T06:45:32.700Z,4.45
2022-12-31T06:47:59.551Z,4.03
2022-12-31T06:50:26.435Z,3.97
2022-12-31T06:52:53.204Z,3.88
2022-12-31T06:55:20.437Z,4.47
2022-12-31T06:57:47.591Z,3.80
2022-12-31T07:00:15.122Z,3.88
2022-12-31T07:03:26.589Z,3.88
2022-12-31T07:06:02.114Z,3.95
2022-12-31T07:08:34.088Z,4.07
2022-12-31T07:11:14.396Z,3.78
2022-12-31T07:14:10.360Z,4.57
2022-12-31T07:17:04.810Z,3.85
2022-12-31T07:19:37.684Z,3.90
2022-12-31T07:22:05.384Z,4.78
2022-12-31T07:24:32.508Z,3.97
2022-12-31T07:27:23.640Z,3.38
2022-12-31T07:30:03.149Z,3.90
2022-12-31T07:33:02.009Z,3.33
2022-12-31T07:35:34.778Z,3.15
2022-12-31T07:38:49.598Z,3.00
2022-12-31T07:44:05.139Z,3.22
2022-12-31T07:46:47.574Z,3.65
2022-12-31T07:49:14.869Z,4.05
2022-12-31T07:51:42.054Z,3.78
2022-12-31T07:54:13.913Z,5.00
2022-12-31T07:56:42.119Z,4.30
2022-12-31T07:59:24.568Z,4.63
2022-12-31T08:02:13.941Z,4.90
2022-12-31T08:04:53.532Z,4.68
2022-12-31T08:07:52.696Z,5.22
2022-12-31T08:10:31.180Z,4.95
2022-12-31T08:13:09.789Z,4.45
2022-12-31T08:15:40.334Z,4.40
2022-12-31T08:18:08.441Z,4.88
2022-12-31T08:20:54.480Z,4.35
2022-12-31T08:23:56.621Z,4.70
2022-12-31T08:26:56.770Z,4.47
2022-12-31T08:29:38.794Z,4.70
2022-12-31T08:32:20.886Z,4.75
2022-12-31T08:35:06.536Z,4.60
2022-12-31T08:37:47.945Z,6.57
2022-12-31T08:40:30.050Z,4.82
2022-12-31T08:43:21.939Z,6.55
2022-12-31T08:45:51.854Z,4.13
2022-12-31T08:48:39.753Z,3.83
2022-12-31T08:51:12.813Z,4.05
2022-12-31T08:53:39.883Z,7.20
2022-12-31T08:56:34.433Z,5.40
2022-12-31T08:59:01.184Z,7.50
2022-12-31T09:01:40.190Z,5.18
2022-12-31T09:04:19.190Z,4.93
2022-12-31T09:06:57.446Z,10.02
2022-12-31T09:09:37.427Z,4.45
2022-12-31T09:12:16.213Z,6.43
2022-12-31T09:14:50.705Z,10.30
2022-12-31T09:17:38.531Z,126.65
2022-12-31T09:20:06.393Z,7.43
2022-12-31T09:22:33.480Z,5.75
2022-12-31T09:25:00.659Z,6.43
2022-12-31T09:27:33.755Z,11.13
2022-12-31T09:30:14.500Z,14.63
2022-12-31T09:33:06.023Z,5.85
2022-12-31T09:35:52.935Z,6.45
2022-12-31T09:38:52.352Z,3.65
2022-12-31T09:41:38.008Z,4.40
2022-12-31T09:44:47.889Z,60.10
2022-12-31T09:47:17.761Z,4.40
2022-12-31T09:50:09.058Z,2.83
2022-12-31T09:53:16.183Z,1.35
2022-12-31T09:55:52.100Z,1.30
2022-12-31T09:58:37.565Z,2.78
2022-12-31T10:01:38.620Z,2.42
2022-12-31T10:04:25.450Z,1.92
2022-12-31T10:07:17.110Z,2.08
2022-12-31T10:09:53.204Z,4.10
2022-12-31T10:12:50.749Z,1.40
2022-12-31T10:15:35.730Z,2.38
2022-12-31T10:18:33.028Z,2.55
2022-12-31T10:21:29.275Z,1.73
2022-12-31T10:24:33.197Z,1.92
2022-12-31T10:27:16.460Z,3.70
2022-12-31T10:29:47.523Z,0.90
2022-12-31T10:32:40.690Z,4.78
2022-12-31T10:35:48.279Z,3.00
2022-12-31T10:38:27.675Z,8.15
2022-12-31T10:41:26.436Z,10.50
2022-12-31T10:44:05.159Z,6.20
2022-12-31T10:46:43.734Z,2.55
2022-12-31T10:49:16.606Z,3.40
2022-12-31T10:52:10.617Z,2.33
2022-12-31T10:55:05.180Z,17.25
2022-12-31T10:58:15.172Z,4.03
2022-12-31T11:00:54.401Z,4.70
2022-12-31T11:03:39.963Z,3.47
2022-12-31T11:06:37.858Z,4.43
2022-12-31T11:09:16.761Z,5.57
2022-12-31T11:12:13.971Z,5.93
2022-12-31T11:15:11.374Z,4.05
2022-12-31T11:17:50.669Z,6.82
2022-12-31T11:20:49.355Z,1.80
2022-12-31T11:23:26.632Z,8.95
2022-12-31T11:26:11.621Z,3.50
2022-12-31T11:29:04.696Z,3.60
2022-12-31T11:31:45.020Z,16.85
2022-12-31T11:34:29.914Z,35.88
2022-12-31T11:37:11.480Z,13.73
2022-12-31T11:39:57.033Z,15.85
2022-12-31T11:42:55.095Z,5.40
2022-12-31T11:45:21.954Z,7.72
2022-12-31T11:51:12.992Z,17.25
2022-12-31T11:54:01.315Z,19.98
2022-12-31T11:56:37.659Z,14.90
2022-12-31T11:59:15.686Z,21.27
2022-12-31T12:02:01.888Z,11.63
2022-12-31T12:04:28.788Z,9.57
2022-12-31T12:06:56.010Z,11.38
2022-12-31T12:09:28.553Z,5.57
2022-12-31T12:12:05.676Z,5.63
2022-12-31T12:14:38.799Z,17.85
2022-12-31T12:19:46.679Z,8.10
2022-12-31T12:22:23.985Z,24.92
2022-12-31T12:25:15.798Z,26.02
2022-12-31T12:27:45.760Z,17.88
2022-12-31T12:30:25.991Z,29.70
2022-12-31T12:33:02.276Z,32.15
2022-12-31T12:35:35.616Z,18.40
2022-12-31T12:38:16.251Z,18.55
2022-12-31T12:40:57.307Z,16.27
2022-12-31T12:43:27.431Z,24.75
2022-12-31T12:45:59.752Z,11.95
2022-12-31T12:48:41.778Z,5.25
2022-12-31T12:51:36.563Z,3.20
2022-12-31T12:54:06.466Z,5.20
2022-12-31T12:56:46.756Z,7.35
2022-12-31T12:59:51.207Z,12.60
2022-12-31T13:02:42.344Z,12.15
2022-12-31T13:05:28.419Z,11.95
2022-12-31T13:08:12.620Z,12.70
2022-12-31T13:10:59.496Z,12.10
2022-12-31T13:13:47.455Z,6.35
2022-12-31T13:16:30.660Z,4.75
2022-12-31T13:19:18.965Z,5.03
2022-12-31T13:21:54.545Z,5.72
2022-12-31T13:24:24.258Z,6.65
2022-12-31T13:26:54.369Z,10.85
2022-12-31T13:29:26.271Z,17.08
2022-12-31T13:31:56.848Z,13.20
2022-12-31T13:34:29.101Z,7.63
2022-12-31T13:37:02.246Z,16.87
2022-12-31T13:39:32.300Z,8.95
2022-12-31T13:42:09.152Z,12.13
2022-12-31T13:44:49.678Z,19.42
2022-12-31T13:47:24.162Z,13.38
2022-12-31T13:50:02.799Z,16.95
2022-12-31T13:52:32.728Z,20.60
2022-12-31T13:55:26.574Z,11.07
2022-12-31T13:58:31.501Z,7.25
2022-12-31T14:01:32.070Z,9.10
2022-12-31T14:04:16.501Z,6.80
2022-12-31T14:07:01.981Z,4.82
2022-12-31T14:09:33.224Z,5.68
2022-12-31T14:12:22.984Z,6.43
2022-12-31T14:15:14.935Z,6.50
2022-12-31T14:17:51.128Z,6.70
2022-12-31T14:20:32.999Z,9.48
2022-12-31T14:23:35.696Z,11.65
2022-12-31T14:26:08.962Z,25.88
2022-12-31T14:28:46.508Z,7.15
2022-12-31T14:31:38.265Z,5.95
2022-12-31T14:34:35.650Z,5.47
2022-12-31T14:37:09.580Z,7.65
2022-12-31T14:39:48.390Z,17.88
2022-12-31T14:42:31.629Z,29.60
2022-12-31T14:45:20.949Z,25.27
2022-12-31T14:47:57.501Z,19.08
2022-12-31T14:50:27.434Z,15.52
2022-12-31T14:53:09.138Z,6.28
2022-12-31T14:55:38.054Z,9.38
2022-12-31T14:58:37.132Z,6.93
2022-12-31T15:01:22.278Z,12.95
2022-12-31T15:03:52.193Z,4.85
2022-12-31T15:06:37.224Z,3.30
2022-12-31T15:09:19.126Z,5.38
2022-12-31T15:12:10.632Z,5.03
2022-12-31T15:14:58.840Z,4.65
2022-12-31T15:17:43.327Z,5.43
2022-12-31T15:20:17.535Z,6.75
2022-12-31T15:22:47.333Z,7.03
2022-12-31T15:25:23.022Z,6.32
2022-12-31T15:27:50.718Z,6.88
2022-12-31T15:30:32.625Z,16.45
2022-12-31T15:33:03.453Z,26.80
2022-12-31T15:35:52.098Z,13.50
2022-12-31T15:38:33.393Z,15.13
2022-12-31T15:41:01.053Z,15.40
2022-12-31T15:43:52.813Z,38.90
2022-12-31T15:46:27.956Z,20.35
2022-12-31T15:49:15.432Z,19.13
2022-12-31T15:52:21.464Z,12.00
2022-12-31T15:54:50.769Z,12.90
2022-12-31T15:57:20.812Z,37.30
2022-12-31T15:59:47.926Z,15.05
2022-12-31T16:02:24.143Z,11.00
2022-12-31T16:04:51.904Z,28.20
2022-12-31T16:07:19.141Z,35.40
2022-12-31T16:09:54.837Z,19.23
2022-12-31T16:12:32.797Z,15.60
2022-12-31T16:15:01.671Z,12.60
2022-12-31T16:17:34.279Z,24.30
2022-12-31T16:20:20.052Z,31.80
2022-12-31T16:22:53.048Z,50.03
2022-12-31T16:25:36.276Z,18.80
2022-12-31T16:28:04.126Z,13.40
2022-12-31T16:30:33.024Z,25.35
2022-12-31T16:33:05.760Z,15.00
2022-12-31T16:35:36.955Z,34.40
2022-12-31T16:38:19.190Z,57.67
2022-12-31T16:41:01.019Z,87.13
2022-12-31T16:43:36.084Z,70.63
2022-12-31T16:46:15.189Z,29.33
2022-12-31T16:48:51.926Z,30.25
2022-12-31T16:51:22.432Z,28.88
2022-12-31T16:53:50.265Z,49.13
2022-12-31T16:56:34.290Z,87.40
2022-12-31T16:59:06.091Z,52.05
2022-12-31T17:01:35.670Z,29.80
2022-12-31T17:04:06.693Z,19.17
2022-12-31T17:06:33.770Z,42.10
2022-12-31T17:09:05.757Z,17.45
2022-12-31T17:11:55.836Z,33.67
2022-12-31T17:14:28.667Z,24.60
2022-12-31T17:17:07.993Z,16.80
2022-12-31T17:19:48.172Z,19.52
2022-12-31T17:22:35.816Z,37.88
2022-12-31T17:25:06.672Z,15.50
2022-12-31T17:27:34.886Z,21.63
2022-12-31T17:30:22.536Z,16.33
2022-12-31T17:32:50.202Z,17.52
2022-12-31T17:35:35.486Z,13.23
2022-12-31T17:38:21.181Z,12.10
2022-12-31T17:41:05.459Z,17.38
2022-12-31T17:43:42.551Z,14.02
2022-12-31T17:46:12.864Z,17.67
2022-12-31T17:48:40.166Z,17.90
2022-12-31T17:51:07.050Z,10.05
2022-12-31T17:53:33.875Z,15.25
2022-12-31T17:56:06.464Z,11.43
2022-12-31T17:58:38.479Z,10.85
2022-12-31T18:01:07.190Z,9.85
2022-12-31T18:03:34.203Z,9.50
2022-12-31T18:06:01.247Z,9.43
2022-12-31T18:08:28.871Z,11.50
2022-12-31T18:10:56.537Z,27.50
2022-12-31T18:13:25.401Z,11.73
2022-12-31T18:15:53.124Z,9.00
2022-12-31T18:18:28.623Z,9.18
2022-12-31T18:20:58.148Z,16.48
2022-12-31T18:23:47.689Z,7.18
2022-12-31T18:26:19.900Z,7.80
2022-12-31T18:28:47.675Z,11.57
2022-12-31T18:31:22.450Z,8.82
2022-12-31T18:33:50.385Z,7.57
2022-12-31T18:36:19.380Z,29.85
2022-12-31T18:38:46.444Z,8.60
2022-12-31T18:41:20.357Z,7.90
2022-12-31T18:43:48.000Z,6.95
2022-12-31T18:46:17.229Z,7.18
2022-12-31T18:48:44.577Z,9.02
2022-12-31T18:51:17.689Z,7.25
2022-12-31T18:56:14.148Z,8.07
2022-12-31T18:58:41.589Z,7.68
2022-12-31T19:01:38.337Z,7.20
2022-12-31T19:04:27.584Z,7.00
2022-12-31T19:06:55.444Z,7.47
2022-12-31T19:09:45.111Z,10.27
2022-12-31T19:12:13.611Z,14.85
2022-12-31T19:14:40.525Z,15.20
2022-12-31T19:19:34.716Z,64.55
2022-12-31T19:22:02.562Z,17.65
2022-12-31T19:24:29.584Z,46.95
2022-12-31T19:26:56.432Z,25.02
2022-12-31T19:29:26.065Z,24.83
2022-12-31T19:31:53.353Z,15.93
2022-12-31T19:34:20.419Z,29.08
2022-12-31T19:36:49.834Z,9.95
2022-12-31T19:39:19.507Z,6.63
2022-12-31T19:41:54.724Z,8.25
2022-12-31T19:44:25.624Z,10.52
2022-12-31T19:46:52.572Z,7.40
2022-12-31T19:49:19.610Z,6.35
2022-12-31T19:51:46.490Z,8.45
2022-12-31T19:54:13.839Z,8.80
2022-12-31T19:56:40.809Z,9.98
2022-12-31T19:59:09.499Z,14.48
2022-12-31T20:01:36.541Z,15.95
2022-12-31T20:04:03.632Z,29.73
2022-12-31T20:06:30.504Z,16.05
2022-12-31T20:08:57.420Z,7.25
2022-12-31T20:11:24.858Z,7.47
2022-12-31T20:13:53.634Z,11.55
2022-12-31T20:16:22.998Z,8.38
2022-12-31T20:18:50.733Z,7.05
2022-12-31T20:21:36.467Z,5.18
2022-12-31T20:24:03.392Z,6.45
2022-12-31T20:26:30.270Z,6.78
2022-12-31T20:28:57.155Z,9.50
2022-12-31T20:31:25.538Z,8.30
2022-12-31T20:33:54.531Z,10.85
2022-12-31T20:36:22.671Z,12.48
2022-12-31T20:39:21.104Z,10.90
2022-12-31T20:41:55.303Z,9.23
2022-12-31T20:44:22.209Z,10.07
2022-12-31T20:46:49.095Z,10.00
2022-12-31T20:49:15.992Z,9.80
2022-12-31T20:51:46.139Z,10.50
2022-12-31T20:54:15.842Z,13.55
2022-12-31T20:56:42.810Z,8.80
2022-12-31T20:59:10.414Z,17.75
2022-12-31T21:02:11.732Z,15.88
2022-12-31T21:10:37.366Z,10.90
2022-12-31T21:13:04.347Z,10.20
2022-12-31T21:15:31.189Z,12.93
2022-12-31T21:18:03.275Z,13.38
2022-12-31T21:20:32.447Z,13.93
2022-12-31T21:23:02.410Z,10.98
2022-12-31T21:25:30.580Z,9.48
2022-12-31T21:27:57.521Z,8.88
2022-12-31T21:30:24.342Z,17.67
2022-12-31T21:32:51.166Z,15.95
2022-12-31T21:38:30.116Z,9.80
2022-12-31T21:41:05.265Z,7.78
2022-12-31T21:43:32.341Z,8.27
2022-12-31T21:47:24.852Z,10.75
2022-12-31T21:49:39.102Z,11.73
2022-12-31T21:58:28.126Z,8.65
2022-12-31T22:01:15.572Z,10.43
2022-12-31T22:03:42.985Z,10.18
2022-12-31T22:06:35.805Z,10.10
2022-12-31T22:09:02.712Z,9.88
2022-12-31T22:11:29.638Z,15.18
2022-12-31T22:13:56.492Z,10.35
2022-12-31T22:16:29.480Z,14.48
2022-12-31T22:21:26.693Z,10.48
2022-12-31T22:23:55.835Z,13.27
2022-12-31T22:26:48.649Z,23.20
2022-12-31T22:29:15.569Z,12.80
2022-12-31T22:31:45.510Z,21.40
2022-12-31T22:34:12.312Z,13.43
2022-12-31T22:36:39.110Z,10.13
2022-12-31T22:39:06.211Z,8.85
2022-12-31T22:41:34.162Z,10.27
2022-12-31T22:44:09.958Z,11.35
2022-12-31T22:46:37.720Z,11.50
2022-12-31T22:49:05.822Z,10.73
2022-12-31T22:51:57.790Z,11.00
2022-12-31T22:54:26.635Z,11.10
2022-12-31T22:57:16.124Z,15.95
2022-12-31T22:59:46.764Z,21.73
2022-12-31T23:02:13.589Z,49.00
2022-12-31T23:04:40.772Z,149.85
2022-12-31T23:07:07.627Z,101.90
2022-12-31T23:09:53.107Z,117.85
2022-12-31T23:12:21.460Z,118.57
2022-12-31T23:15:14.534Z,77.22
2022-12-31T23:17:59.892Z,93.00
2022-12-31T23:20:45.277Z,55.42
2022-12-31T23:23:15.475Z,113.75
2022-12-31T23:25:43.664Z,135.13
2022-12-31T23:28:16.951Z,121.57
2022-12-31T23:30:44.264Z,140.20
2022-12-31T23:33:25.718Z,132.05
2022-12-31T23:36:06.124Z,61.78
2022-12-31T23:38:33.074Z,42.08
2022-12-31T23:40:59.925Z,43.45
2022-12-31T23:43:26.773Z,31.63
2022-12-31T23:45:53.725Z,39.40
2022-12-31T23:48:20.618Z,29.73
2022-12-31T23:50:53.783Z,32.05
2022-12-31T23:53:24.900Z,45.33
2022-12-31T23:55:52.659Z,69.05
2022-12-31T23:58:20.972Z,58.65
